createdAt,value
2019-04-26T00:01:13.876Z,11.30
2019-04-26T00:03:47.452Z,11.30
2019-04-26T00:06:17.364Z,11.30
2019-04-26T00:08:51.543Z,11.30
2019-04-26T00:11:47.670Z,11.30
2019-04-26T00:14:34.244Z,11.30
2019-04-26T00:17:11.563Z,11.20
2019-04-26T00:19:42.009Z,11.30
2019-04-26T00:22:12.931Z,11.10
2019-04-26T00:24:42.868Z,11.00
2019-04-26T00:27:12.762Z,11.00
2019-04-26T00:29:42.252Z,11.00
2019-04-26T00:32:12.182Z,10.90
2019-04-26T00:34:42.887Z,11.00
2019-04-26T00:37:13.060Z,11.00
2019-04-26T00:39:43.440Z,11.10
2019-04-26T00:42:14.579Z,11.20
2019-04-26T00:44:44.448Z,11.20
2019-04-26T00:47:15.272Z,11.20
2019-04-26T00:49:45.070Z,11.20
2019-04-26T00:52:15.773Z,11.30
2019-04-26T00:54:46.341Z,11.20
2019-04-26T00:57:18.263Z,11.30
2019-04-26T00:59:49.582Z,11.30
2019-04-26T01:02:33.403Z,11.30
2019-04-26T01:05:03.610Z,11.30
2019-04-26T01:07:33.085Z,11.20
2019-04-26T01:10:02.492Z,11.20
2019-04-26T01:12:32.328Z,11.20
2019-04-26T01:15:02.054Z,11.20
2019-04-26T01:17:32.163Z,11.10
2019-04-26T01:20:03.818Z,11.20
2019-04-26T01:22:36.301Z,11.20
2019-04-26T01:25:07.101Z,11.20
2019-04-26T01:27:37.790Z,11.20
2019-04-26T01:30:10.561Z,11.20
2019-04-26T01:32:42.586Z,11.20
2019-04-26T01:35:12.823Z,11.20
2019-04-26T01:37:45.373Z,11.20
2019-04-26T01:40:19.851Z,11.20
2019-04-26T01:43:00.796Z,11.20
2019-04-26T01:45:49.535Z,11.20
2019-04-26T01:48:45.413Z,11.20
2019-04-26T01:51:22.869Z,11.30
2019-04-26T01:53:53.633Z,11.20
2019-04-26T01:56:29.190Z,11.30
2019-04-26T01:58:59.101Z,11.30
2019-04-26T02:01:42.293Z,11.30
2019-04-26T02:04:12.501Z,11.30
2019-04-26T02:06:42.236Z,11.30
2019-04-26T02:09:12.790Z,11.30
2019-04-26T02:11:42.513Z,11.30
2019-04-26T02:14:12.131Z,11.30
2019-04-26T02:16:42.276Z,11.30
2019-04-26T02:19:12.018Z,11.30
2019-04-26T02:21:46.912Z,11.30
2019-04-26T02:24:41.489Z,11.40
2019-04-26T02:27:30.409Z,11.40
2019-04-26T02:30:01.429Z,11.30
2019-04-26T02:32:32.866Z,11.30
2019-04-26T02:35:03.630Z,11.30
2019-04-26T02:37:34.789Z,11.30
2019-04-26T02:40:07.784Z,11.30
2019-04-26T02:42:43.107Z,11.30
2019-04-26T02:45:58.962Z,11.20
2019-04-26T02:48:52.257Z,11.30
2019-04-26T02:51:30.425Z,11.20
2019-04-26T02:54:45.016Z,11.20
2019-04-26T02:57:21.127Z,11.20
2019-04-26T02:59:52.887Z,11.10
2019-04-26T03:02:26.207Z,11.10
2019-04-26T03:05:00.520Z,11.10
2019-04-26T03:07:58.375Z,11.10
2019-04-26T03:10:36.050Z,11.10
2019-04-26T03:13:09.190Z,11.00
2019-04-26T03:16:08.537Z,10.90
2019-04-26T03:19:10.521Z,10.90
2019-04-26T03:22:02.743Z,10.90
2019-04-26T03:24:41.190Z,10.90
2019-04-26T03:27:46.173Z,10.90
2019-04-26T03:30:26.214Z,10.90
2019-04-26T03:33:38.621Z,10.90
2019-04-26T03:36:44.319Z,10.90
2019-04-26T03:39:36.797Z,10.90
2019-04-26T03:42:53.336Z,10.80
2019-04-26T03:46:02.253Z,10.70
2019-04-26T03:48:51.088Z,10.70
2019-04-26T03:51:32.145Z,10.70
2019-04-26T03:54:09.371Z,10.70
2019-04-26T03:56:54.654Z,10.70
2019-04-26T04:00:01.144Z,10.70
2019-04-26T04:02:53.201Z,10.70
2019-04-26T04:05:37.282Z,10.60
2019-04-26T04:08:10.050Z,10.60
2019-04-26T04:10:48.981Z,10.60
2019-04-26T04:13:45.806Z,10.70
2019-04-26T04:16:39.190Z,10.70
2019-04-26T04:19:20.538Z,10.70
2019-04-26T04:21:57.960Z,10.70
2019-04-26T04:24:43.570Z,10.70
2019-04-26T04:27:27.406Z,10.70
2019-04-26T04:30:11.151Z,10.70
2019-04-26T04:32:59.357Z,10.70
2019-04-26T04:35:33.386Z,10.70
2019-04-26T04:38:11.206Z,10.60
2019-04-26T04:41:24.662Z,10.60
2019-04-26T04:44:29.879Z,10.60
2019-04-26T04:47:30.681Z,10.60
2019-04-26T04:50:26.012Z,10.50
2019-04-26T04:53:38.490Z,10.60
2019-04-26T04:56:46.185Z,10.60
2019-04-26T04:59:23.629Z,10.60
2019-04-26T05:02:26.155Z,10.60
2019-04-26T05:05:43.494Z,10.50
2019-04-26T05:08:54.042Z,10.50
2019-04-26T05:11:51.857Z,10.50
2019-04-26T05:15:13.151Z,10.40
2019-04-26T05:17:55.828Z,10.40
2019-04-26T05:20:31.846Z,10.40
2019-04-26T05:23:31.629Z,10.40
2019-04-26T05:26:51.493Z,10.40
2019-04-26T05:30:54.098Z,10.40
2019-04-26T05:33:40.310Z,10.40
2019-04-26T05:36:40.528Z,10.40
2019-04-26T05:39:16.410Z,10.40
2019-04-26T05:42:51.638Z,10.40
2019-04-26T05:46:29.333Z,10.40
2019-04-26T05:49:58.743Z,10.40
2019-04-26T05:52:40.172Z,10.50
2019-04-26T05:55:37.769Z,10.50
2019-04-26T05:58:47.498Z,10.50
2019-04-26T06:02:02.149Z,10.50
2019-04-26T06:04:50.821Z,10.60
2019-04-26T06:07:42.597Z,10.70
2019-04-26T06:10:27.582Z,10.70
2019-04-26T06:13:12.868Z,10.80
2019-04-26T06:15:57.995Z,10.80
2019-04-26T06:18:53.461Z,10.80
2019-04-26T06:21:35.989Z,10.90
2019-04-26T06:24:42.910Z,10.90
2019-04-26T06:27:54.559Z,10.90
2019-04-26T06:30:45.718Z,10.80
2019-04-26T06:33:29.362Z,10.80
2019-04-26T06:36:02.930Z,10.90
2019-04-26T06:39:04.226Z,10.90
2019-04-26T06:42:09.513Z,10.90
2019-04-26T06:45:27.498Z,11.00
2019-04-26T06:48:06.073Z,10.90
2019-04-26T06:50:43.417Z,10.90
2019-04-26T06:53:37.930Z,10.90
2019-04-26T06:56:49.278Z,10.90
2019-04-26T06:59:43.665Z,10.90
2019-04-26T07:02:21.311Z,10.80
2019-04-26T07:05:21.822Z,10.80
2019-04-26T07:08:30.676Z,10.80
2019-04-26T07:11:33.589Z,10.70
2019-04-26T07:14:29.588Z,10.70
2019-04-26T07:17:08.262Z,10.70
2019-04-26T07:20:24.436Z,10.60
2019-04-26T07:23:38.105Z,10.60
2019-04-26T07:26:31.058Z,10.60
2019-04-26T07:29:30.134Z,10.50
2019-04-26T07:32:09.512Z,10.60
2019-04-26T07:35:04.484Z,10.60
2019-04-26T07:38:11.083Z,10.50
2019-04-26T07:41:18.944Z,10.60
2019-04-26T07:44:55.145Z,10.60
2019-04-26T07:48:19.642Z,10.50
2019-04-26T07:51:27.324Z,10.60
2019-04-26T07:54:40.030Z,10.70
2019-04-26T07:57:47.428Z,10.70
2019-04-26T08:00:26.485Z,10.70
2019-04-26T08:03:17.362Z,10.70
2019-04-26T08:06:22.624Z,10.70
2019-04-26T08:08:59.952Z,10.70
2019-04-26T08:11:36.289Z,10.90
2019-04-26T08:14:29.572Z,10.90
2019-04-26T08:17:41.144Z,11.00
2019-04-26T08:20:28.183Z,11.00
2019-04-26T08:23:02.605Z,11.10
2019-04-26T08:25:38.024Z,11.10
2019-04-26T08:28:12.034Z,11.10
2019-04-26T08:30:46.235Z,11.10
2019-04-26T08:33:19.677Z,11.10
2019-04-26T08:35:53.395Z,11.10
2019-04-26T08:38:24.284Z,11.00
2019-04-26T08:40:54.781Z,11.00
2019-04-26T08:43:43.280Z,10.90
2019-04-26T08:46:36.186Z,10.90
2019-04-26T08:49:13.145Z,10.80
2019-04-26T08:51:45.302Z,10.90
2019-04-26T08:54:22.445Z,10.90
2019-04-26T08:57:02.347Z,10.90
2019-04-26T08:59:35.875Z,10.90
2019-04-26T09:02:18.449Z,10.90
2019-04-26T09:05:08.322Z,10.90
2019-04-26T09:07:40.995Z,11.00
2019-04-26T09:10:13.969Z,11.00
2019-04-26T09:12:45.828Z,11.10
2019-04-26T09:15:17.796Z,11.20
2019-04-26T09:17:49.077Z,11.20
2019-04-26T09:20:28.652Z,11.30
2019-04-26T09:23:05.073Z,11.30
2019-04-26T09:25:39.337Z,11.40
2019-04-26T09:28:17.201Z,11.50
2019-04-26T09:31:15.339Z,11.50
2019-04-26T09:33:49.005Z,11.50
2019-04-26T09:36:18.869Z,11.70
2019-04-26T09:38:48.339Z,11.70
2019-04-26T09:41:18.176Z,11.70
2019-04-26T09:44:10.538Z,11.70
2019-04-26T09:47:01.737Z,11.60
2019-04-26T09:49:44.793Z,11.50
2019-04-26T09:52:20.877Z,11.40
2019-04-26T09:54:50.649Z,11.50
2019-04-26T09:57:20.169Z,11.40
2019-04-26T09:59:49.556Z,11.40
2019-04-26T10:02:19.061Z,11.30
2019-04-26T10:04:49.034Z,11.30
2019-04-26T10:07:18.824Z,11.40
2019-04-26T10:09:51.740Z,11.30
2019-04-26T10:12:38.609Z,11.30
2019-04-26T10:15:22.524Z,11.20
2019-04-26T10:17:51.160Z,11.30
2019-04-26T10:20:21.012Z,11.20
2019-04-26T10:22:50.830Z,11.30
2019-04-26T10:25:20.949Z,11.20
2019-04-26T10:27:50.469Z,11.30
2019-04-26T10:30:19.865Z,11.40
2019-04-26T10:32:49.262Z,11.50
2019-04-26T10:35:21.696Z,11.60
2019-04-26T10:37:52.720Z,11.80
2019-04-26T10:40:34.812Z,11.90
2019-04-26T10:42:53.818Z,12.00
2019-04-26T10:45:24.900Z,12.10
2019-04-26T10:47:54.997Z,12.20
2019-04-26T10:50:24.407Z,12.30
2019-04-26T10:53:00.329Z,12.40
2019-04-26T10:55:50.177Z,12.50
2019-04-26T10:58:45.097Z,12.60
2019-04-26T11:01:16.013Z,12.90
2019-04-26T11:03:45.523Z,13.10
2019-04-26T11:06:15.292Z,13.30
2019-04-26T11:08:44.669Z,13.50
2019-04-26T11:11:14.136Z,13.60
2019-04-26T11:13:43.597Z,13.70
2019-04-26T11:16:12.992Z,13.70
2019-04-26T11:18:42.722Z,13.80
2019-04-26T11:21:12.213Z,13.90
2019-04-26T11:23:45.400Z,14.00
2019-04-26T11:26:13.176Z,14.20
2019-04-26T11:28:42.586Z,14.20
2019-04-26T11:31:12.045Z,14.40
2019-04-26T11:33:44.908Z,14.40
2019-04-26T11:36:12.592Z,14.40
2019-04-26T11:38:42.050Z,14.40
2019-04-26T11:41:12.201Z,14.30
2019-04-26T11:43:41.671Z,14.40
2019-04-26T11:46:11.237Z,14.30
2019-04-26T11:48:40.986Z,14.30
2019-04-26T11:51:10.798Z,14.40
2019-04-26T11:53:40.638Z,14.50
2019-04-26T11:56:13.091Z,14.50
2019-04-26T11:58:43.309Z,14.50
2019-04-26T12:01:14.529Z,14.50
2019-04-26T12:04:02.895Z,14.60
2019-04-26T12:06:44.739Z,14.80
2019-04-26T12:09:22.708Z,15.00
2019-04-26T12:12:03.935Z,15.30
2019-04-26T12:14:23.280Z,16.10
2019-04-26T12:16:59.175Z,16.30
2019-04-26T12:19:24.527Z,16.60
2019-04-26T12:21:53.953Z,16.80
2019-04-26T12:24:25.287Z,16.80
2019-04-26T12:26:55.864Z,17.10
2019-04-26T12:29:25.953Z,17.50
2019-04-26T12:31:55.400Z,17.80
2019-04-26T12:34:24.779Z,17.60
2019-04-26T12:36:54.624Z,17.30
2019-04-26T12:39:24.677Z,16.90
2019-04-26T12:41:54.469Z,16.60
2019-04-26T12:44:26.000Z,16.50
2019-04-26T12:47:05.238Z,16.40
2019-04-26T12:49:35.542Z,16.40
2019-04-26T12:52:05.489Z,16.50
2019-04-26T12:54:34.933Z,16.80
2019-04-26T12:57:05.838Z,16.90
2019-04-26T12:59:44.126Z,17.00
2019-04-26T13:02:06.878Z,17.30
2019-04-26T13:04:40.295Z,17.50
2019-04-26T13:07:23.563Z,17.20
2019-04-26T13:10:08.015Z,17.20
2019-04-26T13:13:02.564Z,17.40
2019-04-26T13:16:01.196Z,17.70
2019-04-26T13:18:30.910Z,17.50
2019-04-26T13:21:02.886Z,17.30
2019-04-26T13:23:31.804Z,17.10
2019-04-26T13:26:01.513Z,16.90
2019-04-26T13:28:31.469Z,16.90
2019-04-26T13:31:02.399Z,17.10
2019-04-26T13:33:32.392Z,17.00
2019-04-26T13:36:03.015Z,17.10
2019-04-26T13:38:33.457Z,17.20
2019-04-26T13:41:04.595Z,17.50
2019-04-26T13:43:35.161Z,17.60
2019-04-26T13:46:26.849Z,17.40
2019-04-26T13:49:04.294Z,17.30
2019-04-26T13:51:34.545Z,17.30
2019-04-26T13:54:04.021Z,17.50
2019-04-26T13:56:35.905Z,17.80
2019-04-26T13:59:04.924Z,18.00
2019-04-26T14:01:34.368Z,18.40
2019-04-26T14:04:06.740Z,18.30
2019-04-26T14:06:35.290Z,18.30
2019-04-26T14:09:07.474Z,18.30
2019-04-26T14:11:36.929Z,17.90
2019-04-26T14:14:06.411Z,17.80
2019-04-26T14:16:36.194Z,17.70
2019-04-26T14:19:06.322Z,17.90
2019-04-26T14:21:36.453Z,18.30
2019-04-26T14:24:25.190Z,18.40
2019-04-26T14:26:57.505Z,18.80
2019-04-26T14:29:28.594Z,19.10
2019-04-26T14:31:58.028Z,19.40
2019-04-26T14:34:27.790Z,19.50
2019-04-26T14:37:06.390Z,19.30
2019-04-26T14:39:38.442Z,19.20
2019-04-26T14:41:59.748Z,18.90
2019-04-26T14:44:31.342Z,18.80
2019-04-26T14:47:13.110Z,18.60
2019-04-26T14:49:38.937Z,18.70
2019-04-26T14:52:03.648Z,18.90
2019-04-26T14:54:33.258Z,18.70
2019-04-26T14:57:07.333Z,18.60
2019-04-26T14:59:53.533Z,18.30
2019-04-26T15:02:47.468Z,17.80
2019-04-26T15:05:38.221Z,17.60
2019-04-26T15:08:09.631Z,17.30
2019-04-26T15:10:45.892Z,17.30
2019-04-26T15:13:18.791Z,17.40
2019-04-26T15:15:45.934Z,17.60
2019-04-26T15:18:14.108Z,18.00
2019-04-26T15:20:43.616Z,18.50
2019-04-26T15:23:13.278Z,18.60
2019-04-26T15:25:48.309Z,18.70
2019-04-26T15:28:14.674Z,18.90
2019-04-26T15:30:46.930Z,19.10
2019-04-26T15:33:15.788Z,19.20
2019-04-26T15:35:46.499Z,19.00
2019-04-26T15:38:16.443Z,18.70
2019-04-26T15:41:05.406Z,18.70
2019-04-26T15:43:51.921Z,18.80
2019-04-26T15:46:56.274Z,19.00
2019-04-26T15:49:43.695Z,19.20
2019-04-26T15:52:13.609Z,19.40
2019-04-26T15:54:43.087Z,19.50
2019-04-26T15:57:12.602Z,19.60
2019-04-26T15:59:43.039Z,19.80
2019-04-26T16:02:12.820Z,19.70
2019-04-26T16:04:42.679Z,19.60
2019-04-26T16:07:16.723Z,19.50
2019-04-26T16:09:43.794Z,19.00
2019-04-26T16:12:13.549Z,18.80
2019-04-26T16:14:43.423Z,18.60
2019-04-26T16:17:12.897Z,18.10
2019-04-26T16:19:42.734Z,17.90
2019-04-26T16:22:12.251Z,17.60
2019-04-26T16:24:42.927Z,17.30
2019-04-26T16:27:13.233Z,16.90
2019-04-26T16:30:14.289Z,16.70
2019-04-26T16:33:02.700Z,16.60
2019-04-26T16:35:33.677Z,16.30
2019-04-26T16:38:22.931Z,16.20
2019-04-26T16:40:54.968Z,16.10
2019-04-26T16:43:36.668Z,16.10
2019-04-26T16:45:55.320Z,16.10
2019-04-26T16:48:25.875Z,16.00
2019-04-26T16:50:56.118Z,15.80
2019-04-26T16:53:43.532Z,15.60
2019-04-26T16:55:57.450Z,15.50
2019-04-26T16:58:30.952Z,15.40
2019-04-26T17:00:58.343Z,15.30
2019-04-26T17:03:27.952Z,15.20
2019-04-26T17:06:05.363Z,15.00
2019-04-26T17:08:29.094Z,14.80
2019-04-26T17:11:00.763Z,14.60
2019-04-26T17:13:31.015Z,14.40
2019-04-26T17:16:02.284Z,14.30
2019-04-26T17:18:32.445Z,14.20
2019-04-26T17:21:03.136Z,14.10
2019-04-26T17:24:09.507Z,14.00
2019-04-26T17:26:43.345Z,13.80
2019-04-26T17:29:12.925Z,13.60
2019-04-26T17:31:43.140Z,13.50
2019-04-26T17:34:12.768Z,13.40
2019-04-26T17:36:42.244Z,13.30
2019-04-26T17:39:16.879Z,13.20
2019-04-26T17:41:50.731Z,13.20
2019-04-26T17:44:14.911Z,13.00
2019-04-26T17:46:48.879Z,13.00
2019-04-26T17:49:21.364Z,13.00
2019-04-26T17:51:51.763Z,13.00
2019-04-26T17:54:40.780Z,13.00
2019-04-26T17:56:51.537Z,13.00
2019-04-26T17:59:33.498Z,13.00
2019-04-26T18:02:00.837Z,12.90
2019-04-26T18:04:32.439Z,12.80
2019-04-26T18:07:03.042Z,12.70
2019-04-26T18:09:41.390Z,12.70
2019-04-26T18:12:00.027Z,12.70
2019-04-26T18:14:30.350Z,12.70
2019-04-26T18:17:06.429Z,12.70
2019-04-26T18:19:49.562Z,12.60
2019-04-26T18:22:28.395Z,12.60
2019-04-26T18:24:56.606Z,12.50
2019-04-26T18:27:29.859Z,12.50
2019-04-26T18:29:59.836Z,12.50
2019-04-26T18:32:28.759Z,12.40
2019-04-26T18:34:58.293Z,12.30
2019-04-26T18:37:28.497Z,12.30
2019-04-26T18:40:02.055Z,12.10
2019-04-26T18:42:29.680Z,12.00
2019-04-26T18:44:59.118Z,12.00
2019-04-26T18:47:33.540Z,11.90
2019-04-26T18:50:03.036Z,11.90
2019-04-26T18:52:37.194Z,11.80
2019-04-26T18:55:13.331Z,11.80
2019-04-26T18:57:47.352Z,11.70
2019-04-26T19:00:26.484Z,11.70
2019-04-26T19:02:55.382Z,11.60
2019-04-26T19:05:29.840Z,11.60
2019-04-26T19:07:56.749Z,11.60
2019-04-26T19:10:29.362Z,11.60
2019-04-26T19:13:01.330Z,11.60
2019-04-26T19:15:42.001Z,11.50
2019-04-26T19:18:42.348Z,11.50
2019-04-26T19:21:23.789Z,11.40
2019-04-26T19:24:04.905Z,11.40
2019-04-26T19:26:32.978Z,11.40
2019-04-26T19:28:56.036Z,11.30
2019-04-26T19:31:27.225Z,11.30
2019-04-26T19:33:56.908Z,11.30
2019-04-26T19:36:29.199Z,11.30
2019-04-26T19:38:58.182Z,11.30
2019-04-26T19:41:28.408Z,11.20
2019-04-26T19:43:58.560Z,11.20
2019-04-26T19:46:36.028Z,11.10
2019-04-26T19:49:33.878Z,11.10
2019-04-26T19:52:17.658Z,11.10
2019-04-26T19:54:53.054Z,11.00
2019-04-26T19:57:28.396Z,11.00
2019-04-26T19:59:58.226Z,11.00
2019-04-26T20:02:35.875Z,10.90
2019-04-26T20:05:02.326Z,10.90
2019-04-26T20:07:33.141Z,10.90
2019-04-26T20:10:05.019Z,10.90
2019-04-26T20:12:37.905Z,10.90
2019-04-26T20:15:05.935Z,10.90
2019-04-26T20:17:35.757Z,10.80
2019-04-26T20:20:16.925Z,10.80
2019-04-26T20:22:36.449Z,10.80
2019-04-26T20:25:06.377Z,10.70
2019-04-26T20:27:36.094Z,10.70
2019-04-26T20:30:08.168Z,10.80
2019-04-26T20:32:42.009Z,10.70
2019-04-26T20:35:26.718Z,10.70
2019-04-26T20:37:56.308Z,10.70
2019-04-26T20:40:25.595Z,10.70
2019-04-26T20:43:01.976Z,10.70
2019-04-26T20:45:38.911Z,10.70
2019-04-26T20:47:57.961Z,10.70
2019-04-26T20:50:28.597Z,10.60
2019-04-26T20:53:00.821Z,10.60
2019-04-26T20:55:32.351Z,10.60
2019-04-26T20:58:06.956Z,10.50
2019-04-26T21:00:36.516Z,10.50
2019-04-26T21:03:06.073Z,10.50
2019-04-26T21:05:45.918Z,10.50
2019-04-26T21:08:07.425Z,10.50
2019-04-26T21:10:36.816Z,10.50
2019-04-26T21:13:06.473Z,10.50
2019-04-26T21:15:36.225Z,10.50
2019-04-26T21:18:06.037Z,10.50
2019-04-26T21:20:36.527Z,10.40
2019-04-26T21:23:06.472Z,10.40
2019-04-26T21:25:46.343Z,10.40
2019-04-26T21:28:33.012Z,10.40
2019-04-26T21:31:15.338Z,10.40
2019-04-26T21:33:59.874Z,10.40
2019-04-26T21:36:53.284Z,10.40
2019-04-26T21:39:35.431Z,10.40
2019-04-26T21:42:05.237Z,10.40
2019-04-26T21:44:35.507Z,10.40
2019-04-26T21:47:05.345Z,10.40
2019-04-26T21:49:36.690Z,10.40
2019-04-26T21:52:06.745Z,10.40
2019-04-26T21:54:36.201Z,10.40
2019-04-26T21:57:05.601Z,10.40
2019-04-26T21:59:40.809Z,10.50
2019-04-26T22:02:07.921Z,10.60
2019-04-26T22:04:37.846Z,10.60
2019-04-26T22:07:08.029Z,10.60
2019-04-26T22:09:52.890Z,10.60
2019-04-26T22:12:23.329Z,10.70
2019-04-26T22:15:13.744Z,10.60
2019-04-26T22:17:45.524Z,10.60
2019-04-26T22:20:33.684Z,10.60
2019-04-26T22:23:33.089Z,10.50
2019-04-26T22:26:05.016Z,10.50
2019-04-26T22:28:35.986Z,10.50
2019-04-26T22:31:08.509Z,10.40
2019-04-26T22:33:37.381Z,10.40
2019-04-26T22:36:06.981Z,10.40
2019-04-26T22:38:36.800Z,10.50
2019-04-26T22:41:06.186Z,10.50
2019-04-26T22:44:09.772Z,10.50
2019-04-26T22:46:49.436Z,10.50
2019-04-26T22:49:17.753Z,10.50
2019-04-26T22:51:47.554Z,10.60
2019-04-26T22:54:17.465Z,10.60
2019-04-26T22:56:46.902Z,10.70
2019-04-26T22:59:16.986Z,10.60
2019-04-26T23:01:48.689Z,10.70
2019-04-26T23:04:23.501Z,10.70
2019-04-26T23:06:49.221Z,10.60
2019-04-26T23:09:20.804Z,10.70
2019-04-26T23:11:55.837Z,10.60
2019-04-26T23:14:52.184Z,10.60
2019-04-26T23:17:38.207Z,10.60
2019-04-26T23:20:37.836Z,10.60
2019-04-26T23:23:08.631Z,10.60
2019-04-26T23:25:38.267Z,10.60
2019-04-26T23:28:08.144Z,10.60
2019-04-26T23:30:37.784Z,10.60
2019-04-26T23:33:07.270Z,10.70
2019-04-26T23:35:43.305Z,10.60
2019-04-26T23:38:08.571Z,10.60
2019-04-26T23:40:38.428Z,10.50
2019-04-26T23:43:07.835Z,10.50
2019-04-26T23:45:37.585Z,10.50
2019-04-26T23:48:07.735Z,10.40
2019-04-26T23:50:38.535Z,10.40
2019-04-26T23:53:08.294Z,10.40
2019-04-26T23:55:38.005Z,10.40
2019-04-26T23:58:10.785Z,10.40
